アムステルダム/スキポール の空港の天気 - METARとTAF

スキポール空港(アムステルダム) ( EHAM / AMS ) - オランダ アムステルダム
飛行場実況気象(Metar)
観測時間11/30 17:25 CET (11/30 16:25 UTC)
風向・風速東北東 3m/s
視程9000m
天気現象
少しの雲 雲底高度 300m
気温5℃
湿度93%
気圧1026hPa
METAREHAM 301625Z 06005KT 9000 FEW010 05/04 Q1026 NOSIG
過去の天気等 Google飛行場航空写真 Wunderground天気予報

過去48時間のMETAR

飛行場予報(TAF)
発表時間: 11/30 12:20 CET (11/30 11:20 UTC)
予報対象時間: 30日13時 CET ~ 1日19時 CET
風向・風速北北東 3m/s
視程9000m
全天の8割程度の雲 雲底高度 910m
30日19時 CET ~ 1日10時 CET に 確率 30% で一時的に
視程2500m
天気現象散在した霧
少しの雲 雲底高度 910m
1日16時 CET から 確率 30% で
視程6000m
全天の8割程度の雲 雲底高度 370m
TAF EHAM 301120Z 3012/0118 03006KT 9000 BKN030
PROB30 TEMPO 3018/0109 2500 BCFG FEW030
PROB30 0115/0118 6000 BKN012